Terminal Aerodrome Forecast
Issued by NWS Denver/Boulder, CO

Home | Current Version | Previous Version | Text Only | Print | Product List | Glossary On
Versions: 1 2 3 4 5 6 7 8 9 10 11 12 13 14 15 16 17 18 19 20 21 22 23 24 25 26 27 28 29 30 31 32 33 34 35 36
000
FTUS45 KBOU 272322
TAFDEN
TAF
KDEN 272322Z 2800/2906 04010KT P6SM SCT070 SCT110 BKN150
     FM280200 08007KT P6SM FEW080 SCT120 BKN200
     FM280400 13006KT P6SM SCT120 SCT200
     FM280600 20007KT P6SM FEW120 SCT200
     FM281600 VRB05KT P6SM FEW070 SCT120
     FM282100 12007KT P6SM SCT070 BKN120=

USA.gov is the U.S. government's official web portal to all federal, state and local government web resources and services.